Time;durP1;ratioP1;P1;durP2;ratioP2;P2;SDS_P1;SDS_P2;PMS_P1;PMS_P2;Temp;Humidity;BMP_temperature;BMP_pressure;BME280_temperature;BME280_humidity;BME280_pressure;Samples;Min_cycle;Max_cycle;Signal;HPM_P1;HPM_P2
2022/04/04 00:01:17;;;;;;;17.00;12.80;;;;;;;4.38;55.42;99226.75;7023148;28;20213;-83
2022/04/04 00:04:41;;;;;;;16.00;12.67;;;;;;;4.35;55.15;99230.56;7022286;28;20210;-82
2022/04/04 00:08:18;;;;;;;16.00;13.03;;;;;;;4.22;55.52;99229.28;7017988;28;20233;-83
2022/04/04 00:11:39;;;;;;;16.40;12.63;;;;;;;3.91;56.08;99228.88;7022384;28;20264;-82
2022/04/04 00:15:01;;;;;;;15.37;12.93;;;;;;;4.28;55.08;99210.00;7021983;28;20232;-83
2022/04/04 00:18:24;;;;;;;16.57;12.40;;;;;;;4.39;55.08;99228.44;7020130;28;20213;-83
2022/04/04 00:21:46;;;;;;;16.60;12.87;;;;;;;3.82;55.93;99240.47;7022526;28;20209;-83
2022/04/04 00:25:16;;;;;;;17.13;13.03;;;;;;;4.30;55.81;99224.84;7026573;28;20206;-83
2022/04/04 00:28:47;;;;;;;15.23;12.57;;;;;;;4.37;54.93;99214.41;7027020;28;20290;-82
2022/04/04 00:32:09;;;;;;;15.43;12.70;;;;;;;4.12;54.91;99215.22;7027587;28;20561;-82
2022/04/04 00:35:51;;;;;;;16.90;12.40;;;;;;;4.08;55.22;99222.69;7027409;28;20239;-83
2022/04/04 00:39:15;;;;;;;16.63;13.53;;;;;;;4.08;55.63;99217.34;7027686;28;20271;-83
2022/04/04 00:42:43;;;;;;;16.57;12.20;;;;;;;3.60;55.03;99165.44;7026390;28;20206;-83
2022/04/04 00:46:11;;;;;;;16.43;13.23;;;;;;;2.96;57.23;99172.75;7026216;28;20213;-82
2022/04/04 00:49:33;;;;;;;18.23;13.33;;;;;;;3.76;56.51;99225.06;7026553;28;20278;-83
2022/04/04 00:52:59;;;;;;;19.20;13.60;;;;;;;4.03;56.38;99222.31;7030246;28;20213;-83
2022/04/04 00:56:24;;;;;;;17.53;14.00;;;;;;;3.70;55.87;99196.34;7034401;28;20207;-82
2022/04/04 00:59:54;;;;;;;17.27;13.83;;;;;;;4.18;54.50;99210.09;7027111;28;20224;-85
2022/04/04 01:03:21;;;;;;;15.63;12.10;;;;;;;4.05;53.86;99219.47;7027068;28;20214;-84
2022/04/04 01:07:29;;;;;;;15.93;13.47;;;;;;;3.65;55.70;99213.81;7023710;28;20732;-83
2022/04/04 01:15:36;;;;;;;17.83;12.77;;;;;;;3.58;55.86;99223.38;7025710;28;20197;-83
2022/04/04 01:19:21;;;;;;;17.57;11.90;;;;;;;3.71;54.59;99214.00;6953615;28;20314;-83
2022/04/04 01:27:44;;;;;;;;;;;;;;;;;;;;;
2022/04/04 01:31:11;;;;;;;17.20;12.90;;;;;;;3.16;56.13;99214.25;6851412;28;20248;-82
2022/04/04 02:28:55;;;;;;;18.10;14.10;;;;;;;2.85;56.67;99117.88;6658875;29;20229;-84
2022/04/04 02:32:17;;;;;;;17.87;14.33;;;;;;;2.85;56.57;99133.00;6703973;29;20234;-83
2022/04/04 02:36:13;;;;;;;19.00;15.33;;;;;;;3.14;56.05;99153.13;6858710;29;20213;-84
2022/04/04 02:39:41;;;;;;;20.30;15.63;;;;;;;3.20;55.84;99155.19;6881836;28;20223;-82
2022/04/04 03:00:46;;;;;;;19.30;14.03;;;;;;;3.01;56.08;99157.97;6674851;29;20328;-83
2022/04/04 03:07:56;;;;;;;18.50;14.23;;;;;;;3.12;56.00;99140.97;6718195;29;20299;-84
2022/04/04 03:12:26;;;;;;;;;;;;;;;;;;;;;
2022/04/04 04:55:30;;;;;;;18.53;13.20;;;;;;;3.57;53.76;99113.25;6690861;29;20729;-85
2022/04/04 04:59:07;;;;;;;15.50;11.83;;;;;;;3.76;53.88;99112.22;6752494;28;20217;-83
2022/04/04 05:19:45;;;;;;;13.57;10.43;;;;;;;3.45;54.13;99100.31;6916554;28;20228;-84
2022/04/04 05:27:57;;;;;;;;;;;;;;;;;;;;;
2022/04/04 05:31:39;;;;;;;14.10;11.07;;;;;;;3.02;53.97;99039.78;6754785;29;20315;-83
2022/04/04 05:39:28;;;;;;;14.70;10.87;;;;;;;3.07;54.17;99047.34;6897489;28;20236;-85
2022/04/04 05:42:54;;;;;;;13.27;10.83;;;;;;;2.81;53.16;99014.47;6917242;28;20234;-84
2022/04/04 05:50:47;;;;;;;13.83;10.97;;;;;;;3.47;53.89;99115.16;6930501;28;20270;-84
2022/04/04 05:54:54;;;;;;;12.73;10.07;;;;;;;3.70;52.70;99112.84;7026864;28;20220;-84
2022/04/04 05:59:01;;;;;;;13.20;10.57;;;;;;;3.86;52.69;99118.31;7027833;28;20760;-84
2022/04/04 06:11:03;;;;;;;15.13;11.43;;;;;;;5.30;49.03;99111.81;6971233;28;20229;-84
2022/04/04 06:22:27;;;;;;;13.10;10.70;;;;;;;6.10;47.39;99102.97;7013171;28;20203;-85
2022/04/04 06:26:39;;;;;;;11.27;10.10;;;;;;;6.35;46.97;99099.25;7022951;28;20270;-85
2022/04/04 06:30:09;;;;;;;13.40;10.70;;;;;;;5.83;46.96;99052.53;7018286;28;20262;-84
2022/04/04 06:33:31;;;;;;;12.50;11.20;;;;;;;6.85;46.16;99099.75;7047929;28;20207;-84
2022/04/04 06:36:53;;;;;;;14.20;10.27;;;;;;;6.91;45.84;99099.06;7033953;28;20661;-82
2022/04/04 06:40:15;;;;;;;13.37;9.90;;;;;;;7.55;43.72;99099.47;7032479;28;20253;-79
2022/04/04 06:43:38;;;;;;;10.67;9.57;;;;;;;7.78;44.61;99086.06;7016032;28;20307;-79
2022/04/04 06:47:01;;;;;;;11.27;9.87;;;;;;;8.01;42.68;99092.25;7029277;28;20667;-77
2022/04/04 06:50:23;;;;;;;10.53;8.50;;;;;;;8.19;42.35;99077.44;7028211;28;20240;-77
2022/04/04 06:53:45;;;;;;;10.83;9.27;;;;;;;8.20;42.71;99087.19;7029969;28;20719;-77
2022/04/04 06:57:06;;;;;;;11.97;9.23;;;;;;;8.48;42.06;99071.31;7028348;28;20218;-77
2022/04/04 07:00:28;;;;;;;10.90;9.57;;;;;;;8.18;42.65;99083.84;7001084;28;20311;-77
2022/04/04 07:03:51;;;;;;;11.07;9.53;;;;;;;8.31;41.28;99080.56;7001030;28;20239;-77
2022/04/04 07:07:14;;;;;;;11.70;8.20;;;;;;;8.91;41.19;99071.25;7000244;28;20212;-76
2022/04/04 07:10:36;;;;;;;9.50;7.93;;;;;;;9.26;40.09;99063.19;6999855;28;20707;-76
2022/04/04 07:13:57;;;;;;;8.07;7.17;;;;;;;8.36;38.25;99078.97;7000734;28;20201;-75
2022/04/04 07:17:19;;;;;;;9.53;7.90;;;;;;;8.95;39.62;99044.84;7000109;28;20261;-76
2022/04/04 07:20:42;;;;;;;9.47;7.50;;;;;;;9.70;37.78;99071.09;7000047;28;20688;-76
2022/04/04 07:24:05;;;;;;;8.63;7.50;;;;;;;9.19;38.30;99059.59;7004614;28;20209;-76
2022/04/04 07:27:26;;;;;;;10.10;8.27;;;;;;;8.17;40.18;99068.75;7015512;28;20292;-76
2022/04/04 07:30:49;;;;;;;7.93;7.13;;;;;;;8.27;39.73;99066.66;7002720;28;20222;-76
2022/04/04 07:34:11;;;;;;;8.07;6.97;;;;;;;9.57;36.49;99047.56;6999865;28;20291;-76
2022/04/04 07:37:34;;;;;;;7.63;6.57;;;;;;;8.76;35.70;99057.00;7000326;28;20210;-76
2022/04/04 07:40:55;;;;;;;7.60;6.70;;;;;;;9.36;35.57;99058.34;7017129;28;20228;-76
2022/04/04 07:44:17;;;;;;;8.33;6.27;;;;;;;9.81;35.48;99054.41;7023233;28;20205;-75
2022/04/04 07:47:39;;;;;;;9.07;7.53;;;;;;;9.46;37.75;99052.63;7018797;28;20212;-74
2022/04/04 07:51:01;;;;;;;8.10;6.53;;;;;;;9.49;37.44;99057.63;7012442;28;20260;-75
2022/04/04 07:54:24;;;;;;;9.73;7.23;;;;;;;9.57;35.83;99052.94;6999832;28;20205;-76
2022/04/04 07:57:46;;;;;;;8.27;6.83;;;;;;;8.34;37.98;99054.16;6998692;28;20209;-76
2022/04/04 08:01:07;;;;;;;10.10;7.20;;;;;;;9.82;37.04;99042.63;7012686;28;20578;-75
2022/04/04 08:04:29;;;;;;;8.90;7.27;;;;;;;9.15;37.16;99049.41;6998244;28;20608;-75
2022/04/04 08:07:52;;;;;;;8.10;7.27;;;;;;;9.26;37.77;99032.75;7013608;28;20220;-75
2022/04/04 08:11:15;;;;;;;9.57;6.50;;;;;;;10.57;34.86;99038.22;7025870;28;20247;-76
2022/04/04 08:14:37;;;;;;;8.00;7.00;;;;;;;9.27;35.42;99031.75;6998686;28;20618;-74
2022/04/04 08:17:59;;;;;;;9.50;7.03;;;;;;;10.57;33.34;99022.84;7006565;28;20637;-74
2022/04/04 08:21:20;;;;;;;7.47;6.33;;;;;;;10.63;33.19;99021.22;7025661;28;20203;-75
2022/04/04 08:24:42;;;;;;;8.87;7.53;;;;;;;11.25;32.94;99000.25;7026662;28;20354;-75
2022/04/04 08:28:06;;;;;;;8.40;7.60;;;;;;;11.27;33.92;99006.31;7008486;28;20239;-75
2022/04/04 08:31:28;;;;;;;6.60;6.00;;;;;;;11.42;33.05;99015.03;7023945;28;20776;-75
2022/04/04 08:34:49;;;;;;;7.50;6.80;;;;;;;11.46;33.03;99006.31;7000961;28;20198;-75
2022/04/04 08:38:11;;;;;;;9.30;6.57;;;;;;;10.46;33.57;99001.84;6997711;28;20259;-75
2022/04/04 08:41:33;;;;;;;7.70;6.73;;;;;;;10.39;33.43;99000.16;6999690;28;20198;-74
2022/04/04 08:44:57;;;;;;;10.90;7.30;;;;;;;10.42;33.27;98994.34;7031873;28;20212;-75
2022/04/04 08:48:19;;;;;;;8.00;7.07;;;;;;;10.43;35.30;98996.84;7031694;28;20228;-77
2022/04/04 08:51:42;;;;;;;8.10;6.77;;;;;;;10.64;34.60;98995.91;7013409;28;20225;-77
2022/04/04 08:55:04;;;;;;;9.53;7.70;;;;;;;9.94;35.38;98988.03;7005632;28;20322;-79
2022/04/04 08:58:26;;;;;;;10.43;7.20;;;;;;;10.55;35.15;98987.19;7005380;28;20713;-79
2022/04/04 09:01:49;;;;;;;7.90;7.10;;;;;;;10.23;36.04;98970.84;7005443;28;20707;-80
2022/04/04 09:05:10;;;;;;;7.87;7.00;;;;;;;12.15;34.58;98982.47;7005395;28;20245;-82
2022/04/04 09:08:44;;;;;;;6.93;6.23;;;;;;;11.50;33.75;98971.63;7004861;28;20376;-81
2022/04/04 09:12:07;;;;;;;7.97;7.27;;;;;;;11.49;33.59;98972.69;7005489;28;20286;-78
2022/04/04 09:15:54;;;;;;;7.13;6.43;;;;;;;11.27;31.72;98953.13;7014609;28;20229;-80
2022/04/04 09:19:27;;;;;;;7.40;6.27;;;;;;;11.77;30.93;98954.44;7009025;28;20228;-80
2022/04/04 09:22:52;;;;;;;10.03;7.20;;;;;;;11.78;32.67;98954.22;7032153;28;20229;-81
2022/04/04 09:26:27;;;;;;;8.23;6.63;;;;;;;12.36;29.18;98928.97;7032855;28;20209;-80
2022/04/04 09:29:50;;;;;;;6.20;5.60;;;;;;;11.74;29.72;98933.25;7033588;28;20247;-81
2022/04/04 09:33:14;;;;;;;6.30;5.70;;;;;;;11.46;29.15;98922.63;7033869;28;20241;-81
2022/04/04 09:36:45;;;;;;;8.73;5.10;;;;;;;10.77;30.57;98923.16;7032826;28;20765;-81
2022/04/04 09:40:10;;;;;;;4.93;4.50;;;;;;;10.43;31.10;98915.16;7035576;28;20230;-82
2022/04/04 09:43:50;;;;;;;6.03;4.90;;;;;;;11.88;29.40;98918.69;7018668;28;20205;-78
2022/04/04 09:47:11;;;;;;;5.50;5.00;;;;;;;11.26;28.73;98900.19;7008428;28;20675;-79
2022/04/04 09:50:39;;;;;;;5.63;5.13;;;;;;;11.71;28.15;98888.59;7032319;28;20225;-79
2022/04/04 09:54:03;;;;;;;6.53;5.27;;;;;;;12.16;28.83;98892.22;7030462;28;20207;-80
2022/04/04 09:57:28;;;;;;;5.83;5.13;;;;;;;12.23;29.17;98901.13;7031933;28;20737;-81
2022/04/04 10:00:50;;;;;;;5.40;4.90;;;;;;;12.60;27.05;98876.84;7032336;28;20618;-79
2022/04/04 10:04:13;;;;;;;5.57;4.93;;;;;;;12.62;26.01;98879.34;7021575;28;20291;-82
2022/04/04 10:07:35;;;;;;;5.63;5.07;;;;;;;12.18;27.18;98882.03;7015521;28;20217;-80
2022/04/04 10:10:58;;;;;;;6.07;5.47;;;;;;;11.78;29.07;98872.34;7002721;28;20314;-81
2022/04/04 10:14:20;;;;;;;6.20;5.67;;;;;;;12.27;29.18;98868.03;7003835;28;20190;-80
2022/04/04 10:17:42;;;;;;;5.40;5.00;;;;;;;13.01;27.83;98868.28;7012357;28;20197;-80
2022/04/04 10:21:03;;;;;;;5.87;5.30;;;;;;;12.74;27.22;98855.97;7028265;28;20208;-79
2022/04/04 10:24:25;;;;;;;5.57;5.07;;;;;;;12.84;26.90;98861.72;7006435;28;20202;-79
2022/04/04 10:27:49;;;;;;;7.67;5.50;;;;;;;12.79;26.37;98846.13;7025094;28;20208;-80
2022/04/04 10:31:15;;;;;;;7.03;4.87;;;;;;;12.67;26.46;98831.66;7026603;28;20263;-80
2022/04/04 10:34:42;;;;;;;5.43;4.93;;;;;;;12.94;26.96;98840.41;7030230;28;20210;-81
2022/04/04 10:38:05;;;;;;;5.50;5.00;;;;;;;12.24;26.66;98814.44;7021881;28;20292;-80
2022/04/04 10:41:28;;;;;;;5.27;4.87;;;;;;;13.23;26.68;98831.69;7024202;28;20201;-80
2022/04/04 10:44:58;;;;;;;7.73;5.30;;;;;;;13.00;25.82;98817.91;7001636;28;20206;-77
2022/04/04 10:48:21;;;;;;;6.03;5.47;;;;;;;13.16;26.78;98798.44;7013968;28;20217;-79
2022/04/04 10:51:50;;;;;;;6.13;5.53;;;;;;;12.15;28.30;98818.41;7020393;28;20232;-79
2022/04/04 10:55:26;;;;;;;6.77;6.07;;;;;;;12.61;28.13;98791.94;7000657;28;20647;-78
2022/04/04 10:58:48;;;;;;;6.30;5.70;;;;;;;12.50;29.39;98797.19;7014454;28;20707;-78
2022/04/04 11:02:11;;;;;;;6.27;5.67;;;;;;;13.18;28.56;98782.78;6999433;28;20268;-78
2022/04/04 11:09:19;;;;;;;6.40;5.80;;;;;;;13.51;28.15;98786.00;6998933;28;20253;-78
2022/04/04 11:12:56;;;;;;;6.47;5.87;;;;;;;13.35;28.00;98767.63;7000738;28;20292;-78
2022/04/04 11:16:18;;;;;;;6.70;5.93;;;;;;;12.68;28.87;98772.97;6999056;28;20210;-79
2022/04/04 11:19:45;;;;;;;6.37;5.80;;;;;;;12.11;29.43;98771.22;7008752;28;20275;-78
2022/04/04 11:23:10;;;;;;;6.03;5.53;;;;;;;13.10;28.75;98743.28;7010467;28;20197;-80
2022/04/04 11:26:32;;;;;;;6.97;6.27;;;;;;;13.02;29.80;98749.00;7028539;28;20186;-80
2022/04/04 11:29:54;;;;;;;7.07;6.23;;;;;;;14.38;28.27;98734.88;7026476;28;20263;-78
2022/04/04 11:33:22;;;;;;;6.50;5.80;;;;;;;12.74;29.82;98724.22;7006139;28;20237;-79
2022/04/04 11:36:45;;;;;;;6.57;5.87;;;;;;;11.92;30.67;98712.72;7000053;28;20202;-79
2022/04/04 11:40:08;;;;;;;7.10;6.17;;;;;;;13.92;29.01;98723.84;7005553;28;20218;-79
2022/04/04 11:43:32;;;;;;;7.10;6.20;;;;;;;13.60;28.67;98701.50;7000766;28;20202;-78
2022/04/04 11:47:05;;;;;;;6.30;5.77;;;;;;;12.34;30.99;98709.34;7011792;28;20571;-79
2022/04/04 11:50:28;;;;;;;6.70;6.00;;;;;;;12.88;30.26;98695.19;7020640;28;20232;-78
2022/04/04 11:54:01;;;;;;;6.23;5.60;;;;;;;13.07;30.16;98677.94;7029476;28;20225;-79
2022/04/04 11:57:24;;;;;;;6.00;5.40;;;;;;;13.93;28.92;98684.84;7029114;28;20205;-79
2022/04/04 12:00:53;;;;;;;6.37;5.77;;;;;;;13.81;28.70;98682.06;7028966;28;20231;-79
2022/04/04 12:04:15;;;;;;;5.80;5.27;;;;;;;14.29;27.61;98677.44;7029379;28;20572;-78
2022/04/04 12:07:37;;;;;;;6.30;5.73;;;;;;;14.02;28.89;98668.03;7028458;28;20215;-79
2022/04/04 12:11:00;;;;;;;6.13;5.13;;;;;;;14.16;27.92;98663.25;7021614;28;20226;-77
2022/04/04 12:14:21;;;;;;;6.20;5.70;;;;;;;13.88;28.43;98671.13;7026346;28;20259;-77
2022/04/04 12:17:49;;;;;;;6.07;5.57;;;;;;;13.83;28.87;98650.16;7026554;28;20202;-74
2022/04/04 12:21:11;;;;;;;5.97;5.43;;;;;;;13.46;29.79;98655.84;7027339;28;20188;-74
2022/04/04 12:28:22;;;;;;;5.83;5.30;;;;;;;13.03;31.11;98638.84;7026745;28;20682;-74
2022/04/04 12:31:54;;;;;;;5.70;5.10;;;;;;;13.65;29.68;98622.25;7026885;28;20213;-74
2022/04/04 12:35:15;;;;;;;5.67;4.50;;;;;;;13.16;29.94;98625.19;7026680;28;20184;-74
2022/04/04 12:38:38;;;;;;;6.03;5.43;;;;;;;13.97;28.76;98602.81;7026207;28;20221;-74
2022/04/04 12:42:07;;;;;;;5.67;4.83;;;;;;;13.67;29.73;98606.59;7027524;28;20208;-74
2022/04/04 12:45:31;;;;;;;5.03;4.63;;;;;;;14.58;28.89;98602.50;7026999;28;20197;-75
2022/04/04 12:48:53;;;;;;;5.03;4.63;;;;;;;14.27;28.60;98581.13;7024969;28;20316;-75
2022/04/04 12:52:15;;;;;;;6.70;5.43;;;;;;;13.79;29.83;98577.66;7002125;28;20289;-76
2022/04/04 12:55:37;;;;;;;5.83;5.23;;;;;;;13.59;30.38;98491.28;7000715;28;20248;-80
2022/04/04 12:59:04;;;;;;;5.43;4.80;;;;;;;13.67;30.36;98569.50;7016506;28;20221;-77
2022/04/04 13:02:32;;;;;;;5.47;4.97;;;;;;;13.44;29.72;98553.16;7029241;28;20866;-76
2022/04/04 13:05:55;;;;;;;5.87;5.30;;;;;;;14.04;30.54;98556.66;7026959;28;20253;-77
2022/04/04 13:09:23;;;;;;;6.40;5.20;;;;;;;14.24;28.96;98546.31;7025904;28;20630;-76
2022/04/04 13:12:45;;;;;;;5.70;5.10;;;;;;;13.46;29.73;98545.63;7026995;28;20239;-76
2022/04/04 13:16:07;;;;;;;6.73;5.50;;;;;;;14.34;29.33;98541.16;7026142;28;20209;-77
2022/04/04 13:19:30;;;;;;;5.70;5.13;;;;;;;14.87;28.91;98539.94;7026779;28;20376;-76
2022/04/04 13:22:52;;;;;;;5.97;5.43;;;;;;;15.30;28.72;98542.19;7026720;28;20224;-78
2022/04/04 13:26:13;;;;;;;6.13;5.60;;;;;;;15.39;28.33;98535.34;7026174;28;20206;-76
2022/04/04 13:29:35;;;;;;;6.20;5.60;;;;;;;15.27;28.57;98534.53;7028220;28;20225;-76
2022/04/04 13:32:57;;;;;;;6.13;5.60;;;;;;;14.11;29.44;98519.41;7025426;28;20594;-76
2022/04/04 13:36:20;;;;;;;6.80;5.73;;;;;;;14.00;29.50;98522.94;7022190;28;20238;-76
2022/04/04 13:39:41;;;;;;;6.87;6.17;;;;;;;13.68;30.26;98516.16;7030890;28;20231;-76
2022/04/04 13:43:03;;;;;;;7.30;6.60;;;;;;;14.36;29.06;98490.19;7023564;28;20683;-76
2022/04/04 13:46:27;;;;;;;6.33;5.60;;;;;;;13.77;29.62;98504.75;7030545;28;20301;-76
2022/04/04 13:49:48;;;;;;;7.40;6.70;;;;;;;13.68;29.62;98503.41;7030947;28;20592;-76
2022/04/04 13:53:12;;;;;;;6.87;6.17;;;;;;;13.76;29.04;98502.25;7031374;28;20225;-77
2022/04/04 13:56:35;;;;;;;6.23;5.63;;;;;;;12.85;30.29;98479.16;7028725;28;20229;-78
2022/04/04 13:59:56;;;;;;;7.67;6.13;;;;;;;13.60;29.55;98490.22;7030927;28;20254;-78
2022/04/04 14:03:18;;;;;;;9.03;5.63;;;;;;;13.44;30.20;98481.91;7030855;28;20234;-77
2022/04/04 14:06:40;;;;;;;7.17;5.77;;;;;;;13.71;29.01;98472.34;7030710;28;20206;-77
2022/04/04 14:10:03;;;;;;;5.90;5.30;;;;;;;13.33;29.95;98464.56;7029455;28;20794;-77
2022/04/04 14:13:25;;;;;;;6.00;5.50;;;;;;;13.38;29.44;98469.28;7030010;28;20209;-77
2022/04/04 14:16:49;;;;;;;5.90;5.37;;;;;;;13.64;29.11;98466.19;7022527;28;20350;-77
2022/04/04 14:20:12;;;;;;;6.10;5.50;;;;;;;12.99;29.38;98459.03;7030677;28;20266;-77
2022/04/04 14:23:34;;;;;;;6.30;5.70;;;;;;;13.53;28.77;98450.75;7029716;28;20234;-77
2022/04/04 14:26:57;;;;;;;5.87;5.20;;;;;;;13.16;29.79;98463.56;7028935;28;20204;-76
2022/04/04 14:30:19;;;;;;;5.50;5.00;;;;;;;13.13;30.01;98453.22;7030323;28;20588;-77
2022/04/04 14:33:41;;;;;;;6.37;5.67;;;;;;;13.68;30.05;98440.31;7027054;28;20277;-77
2022/04/04 14:37:03;;;;;;;6.17;5.57;;;;;;;14.00;29.52;98439.75;7028084;28;20212;-76
2022/04/04 14:40:25;;;;;;;6.30;5.70;;;;;;;13.65;29.59;98446.16;7028680;28;20232;-76
2022/04/04 14:43:48;;;;;;;6.20;5.60;;;;;;;12.81;30.72;98424.69;7028743;28;20685;-77
2022/04/04 14:47:10;;;;;;;5.77;5.13;;;;;;;13.09;30.57;98446.59;7028551;28;20208;-76
2022/04/04 14:50:31;;;;;;;6.77;5.57;;;;;;;12.96;30.33;98427.00;7028769;28;20249;-74
2022/04/04 14:53:53;;;;;;;6.00;5.40;;;;;;;13.34;29.96;98435.63;7029520;28;20228;-74
2022/04/04 14:57:15;;;;;;;8.10;5.67;;;;;;;13.68;29.03;98434.88;7028131;28;20213;-74
2022/04/04 15:00:38;;;;;;;5.73;5.23;;;;;;;14.19;29.16;98425.03;7029168;28;20374;-76
2022/04/04 15:04:00;;;;;;;6.57;5.43;;;;;;;13.82;29.82;98420.03;7028773;28;20228;-79
2022/04/04 15:07:23;;;;;;;7.17;5.87;;;;;;;13.55;30.54;98399.88;7016730;28;20693;-77
2022/04/04 15:10:45;;;;;;;6.57;5.10;;;;;;;13.49;30.40;98407.06;7011620;28;20228;-77
2022/04/04 15:14:07;;;;;;;5.53;5.00;;;;;;;13.31;30.36;98411.72;7028901;28;20267;-76
2022/04/04 15:17:30;;;;;;;6.03;5.53;;;;;;;12.87;30.52;98417.53;7027642;28;20205;-76
2022/04/04 15:20:52;;;;;;;6.50;5.90;;;;;;;13.37;30.13;98411.63;7003078;28;20217;-76
2022/04/04 15:24:13;;;;;;;6.17;5.50;;;;;;;12.68;30.78;98386.19;7000471;28;20200;-76
2022/04/04 15:27:35;;;;;;;5.93;5.37;;;;;;;13.02;30.26;98401.75;7014482;28;20216;-76
2022/04/04 15:30:56;;;;;;;6.53;5.50;;;;;;;13.02;30.91;98401.75;6999804;28;20602;-76
2022/04/04 15:34:19;;;;;;;5.97;5.40;;;;;;;12.80;31.04;98403.28;7022263;28;20698;-76
2022/04/04 15:37:41;;;;;;;6.30;5.37;;;;;;;12.58;30.64;98412.94;7026464;28;20278;-78
2022/04/04 15:41:03;;;;;;;6.40;5.40;;;;;;;12.55;30.47;98414.22;7025000;28;20768;-78
2022/04/04 15:44:25;;;;;;;5.97;5.37;;;;;;;12.41;30.43;98393.81;7016010;28;20193;-78
2022/04/04 15:47:46;;;;;;;5.97;5.17;;;;;;;12.76;30.14;98402.09;7000490;28;20205;-75
2022/04/04 15:51:09;;;;;;;8.07;6.40;;;;;;;12.72;30.49;98400.88;6999262;28;20241;-73
2022/04/04 15:54:31;;;;;;;7.50;5.27;;;;;;;12.35;31.36;98381.19;6998591;28;20297;-74
2022/04/04 15:57:53;;;;;;;6.80;6.10;;;;;;;12.61;31.02;98374.59;7013922;28;20661;-74
2022/04/04 16:01:14;;;;;;;8.10;5.77;;;;;;;12.44;31.33;98397.91;7023502;28;20295;-74
2022/04/04 16:04:36;;;;;;;7.07;5.40;;;;;;;12.77;31.31;98391.03;7010276;28;20198;-74
2022/04/04 16:07:59;;;;;;;7.77;6.40;;;;;;;12.46;31.85;98393.13;6997853;28;20854;-75
2022/04/04 16:11:24;;;;;;;6.27;5.67;;;;;;;12.76;31.62;98380.44;7010482;28;20228;-74
2022/04/04 16:14:45;;;;;;;9.83;5.80;;;;;;;12.42;32.08;98387.34;7019877;28;20594;-74
2022/04/04 16:18:07;;;;;;;5.97;5.43;;;;;;;12.21;32.59;98392.38;7018695;28;20227;-74
2022/04/04 16:21:29;;;;;;;8.27;6.63;;;;;;;12.63;32.20;98388.75;7021377;28;20204;-75
2022/04/04 16:24:52;;;;;;;12.57;9.37;;;;;;;12.57;32.11;98384.25;7026831;28;20665;-75
2022/04/04 16:28:13;;;;;;;6.17;5.53;;;;;;;12.74;31.57;98385.28;7025894;28;20216;-75
2022/04/04 16:31:35;;;;;;;5.60;5.10;;;;;;;12.69;31.76;98368.91;7021700;28;20201;-75
2022/04/04 16:34:58;;;;;;;6.17;5.40;;;;;;;12.47;32.05;98365.03;7026005;28;20239;-75
2022/04/04 16:38:19;;;;;;;6.87;5.27;;;;;;;13.25;31.24;98374.75;7025431;28;20236;-77
2022/04/04 16:41:42;;;;;;;6.50;5.73;;;;;;;12.52;32.34;98378.69;7026705;28;20296;-76
2022/04/04 16:45:05;;;;;;;9.00;5.83;;;;;;;13.14;33.09;98365.53;7026276;28;20213;-75
2022/04/04 16:48:27;;;;;;;9.80;6.90;;;;;;;13.39;32.33;98389.72;7025392;28;20229;-77
2022/04/04 16:51:48;;;;;;;5.87;5.30;;;;;;;12.99;31.94;98377.84;7026381;28;20205;-76
2022/04/04 16:55:11;;;;;;;6.40;5.60;;;;;;;13.00;32.16;98376.78;7026223;28;20296;-77
2022/04/04 16:58:34;;;;;;;5.37;4.87;;;;;;;13.13;32.27;98379.31;7025504;28;20217;-75
2022/04/04 17:01:55;;;;;;;6.17;5.00;;;;;;;13.00;32.18;98376.78;7026709;28;20261;-74
2022/04/04 17:05:17;;;;;;;5.90;4.97;;;;;;;12.49;33.46;98384.53;7029964;28;20687;-81
2022/04/04 17:08:39;;;;;;;6.70;6.00;;;;;;;12.45;32.78;98365.25;7032897;28;20225;-79
2022/04/04 17:12:01;;;;;;;6.00;5.30;;;;;;;12.58;32.74;98383.19;7032658;28;20208;-75
2022/04/04 17:15:24;;;;;;;7.07;5.73;;;;;;;12.69;32.17;98377.81;7032082;28;20749;-77
2022/04/04 17:18:46;;;;;;;6.50;5.23;;;;;;;12.50;32.69;98376.22;7031718;28;20264;-77
2022/04/04 17:22:07;;;;;;;6.47;5.33;;;;;;;12.55;32.79;98362.84;7032712;28;20701;-75
2022/04/04 17:25:29;;;;;;;8.17;6.30;;;;;;;12.60;32.12;98343.22;7039076;28;20224;-78
2022/04/04 17:28:50;;;;;;;6.57;5.60;;;;;;;12.90;32.58;98371.06;7030485;28;20216;-77
2022/04/04 17:32:15;;;;;;;6.50;5.90;;;;;;;13.12;32.20;98380.38;7023881;28;20296;-81
2022/04/04 17:35:37;;;;;;;6.53;5.83;;;;;;;12.93;32.10;98382.25;7011439;28;20339;-76
2022/04/04 17:38:59;;;;;;;5.93;5.27;;;;;;;12.99;32.48;98385.97;7013688;28;20217;-76
2022/04/04 17:42:20;;;;;;;6.27;5.60;;;;;;;12.18;32.41;98355.00;7040860;28;20279;-75
2022/04/04 17:45:42;;;;;;;5.67;5.13;;;;;;;11.77;33.26;98393.47;7038733;28;20216;-77
2022/04/04 17:49:05;;;;;;;11.73;5.50;;;;;;;12.30;33.25;98391.84;7036461;28;20592;-76
2022/04/04 17:52:27;;;;;;;6.93;6.23;;;;;;;12.01;32.79;98380.94;7031207;28;20205;-77
2022/04/04 17:55:49;;;;;;;6.07;5.47;;;;;;;11.96;33.08;98372.69;7029395;28;20224;-78
2022/04/04 17:59:13;;;;;;;7.73;6.33;;;;;;;12.56;32.96;98382.59;7009506;28;20248;-78
2022/04/04 18:02:34;;;;;;;6.07;5.10;;;;;;;12.70;32.66;98392.97;7003330;28;20658;-77
2022/04/04 18:05:57;;;;;;;8.03;5.57;;;;;;;12.04;33.52;98364.31;7015270;28;20205;-76
2022/04/04 18:09:21;;;;;;;6.93;5.40;;;;;;;12.59;33.03;98392.94;7029245;28;20251;-76
2022/04/04 18:12:43;;;;;;;5.63;4.77;;;;;;;12.57;32.75;98403.97;7029473;28;20326;-76
2022/04/04 18:16:05;;;;;;;5.77;5.20;;;;;;;12.14;33.88;98400.56;7027851;28;20201;-75
2022/04/04 18:19:27;;;;;;;12.10;6.30;;;;;;;12.03;33.28;98392.38;7026959;28;20242;-77
2022/04/04 18:22:53;;;;;;;8.27;6.90;;;;;;;11.79;33.96;98402.16;7027972;28;20196;-79
2022/04/04 18:26:15;;;;;;;6.87;5.80;;;;;;;12.13;33.72;98409.72;7030367;28;20193;-77
2022/04/04 18:29:36;;;;;;;7.87;5.47;;;;;;;11.37;34.45;98411.03;7028464;28;20232;-76
2022/04/04 18:32:59;;;;;;;7.93;5.40;;;;;;;10.94;35.59;98415.50;7007919;28;20213;-77
2022/04/04 18:36:21;;;;;;;7.30;6.60;;;;;;;11.22;35.58;98407.81;7027765;28;20209;-77
2022/04/04 18:39:47;;;;;;;8.47;5.53;;;;;;;11.38;35.13;98412.66;7028460;28;20217;-76
2022/04/04 18:43:08;;;;;;;7.83;5.23;;;;;;;11.30;35.36;98417.50;7028163;28;20275;-77
2022/04/04 18:46:32;;;;;;;6.33;5.73;;;;;;;11.16;35.59;98415.97;7020921;28;20562;-77
2022/04/04 18:49:53;;;;;;;7.73;6.30;;;;;;;10.75;37.58;98415.59;7000220;28;20225;-77
2022/04/04 18:53:15;;;;;;;6.93;6.10;;;;;;;11.15;37.10;98425.09;7000998;28;20225;-76
2022/04/04 18:56:38;;;;;;;7.60;6.20;;;;;;;10.74;37.07;98411.25;7021116;28;20614;-76
2022/04/04 18:59:59;;;;;;;6.50;6.00;;;;;;;10.85;37.17;98440.19;7028724;28;20225;-75
2022/04/04 19:03:21;;;;;;;7.23;6.40;;;;;;;10.46;38.19;98443.91;7018617;28;20297;-75
2022/04/04 19:06:43;;;;;;;6.13;5.53;;;;;;;10.44;38.29;98429.81;6999214;28;20209;-75
2022/04/04 19:10:05;;;;;;;6.67;6.07;;;;;;;11.03;37.52;98426.84;6999927;28;20252;-75
2022/04/04 19:13:28;;;;;;;6.43;5.83;;;;;;;11.00;37.37;98421.88;6999660;28;20232;-75
2022/04/04 19:16:49;;;;;;;8.40;6.43;;;;;;;11.60;36.57;98413.97;6998962;28;20213;-76
2022/04/04 19:20:13;;;;;;;6.47;5.77;;;;;;;11.65;36.51;98418.72;6997877;28;20270;-76
2022/04/04 19:23:35;;;;;;;7.27;6.57;;;;;;;11.61;36.21;98417.50;7002393;28;20192;-75
2022/04/04 19:26:56;;;;;;;6.70;6.10;;;;;;;11.84;35.51;98417.69;7000290;28;20213;-76
2022/04/04 19:30:19;;;;;;;7.47;6.67;;;;;;;11.72;35.74;98411.38;7023035;28;20236;-75
2022/04/04 19:33:45;;;;;;;6.53;5.80;;;;;;;11.96;34.99;98414.06;7029086;28;20228;-76
2022/04/04 19:37:08;;;;;;;9.67;6.23;;;;;;;11.63;35.42;98400.03;7029585;28;20238;-76
2022/04/04 19:40:30;;;;;;;7.00;6.30;;;;;;;11.68;35.79;98399.38;7028920;28;20225;-75
2022/04/04 19:43:51;;;;;;;6.80;6.20;;;;;;;11.47;35.50;98399.72;7029103;28;20708;-76
2022/04/04 19:47:14;;;;;;;9.57;5.90;;;;;;;11.91;34.84;98405.78;7026094;28;20273;-76
2022/04/04 19:50:36;;;;;;;7.47;6.00;;;;;;;11.51;35.44;98419.84;7020996;28;20218;-76
2022/04/04 19:53:58;;;;;;;6.30;5.67;;;;;;;11.79;35.29;98421.06;7024758;28;20614;-76
2022/04/04 19:57:19;;;;;;;6.57;5.73;;;;;;;11.57;35.32;98422.47;7028601;28;20204;-77
2022/04/04 20:00:41;;;;;;;6.50;5.90;;;;;;;11.61;36.23;98421.03;7028831;28;20220;-75
2022/04/04 20:04:04;;;;;;;8.43;7.47;;;;;;;11.10;36.21;98414.13;7029482;28;20239;-76
2022/04/04 20:07:26;;;;;;;7.73;6.73;;;;;;;11.43;36.06;98420.94;7029426;28;20209;-76